South Seaville, New Jersey
Current Conditions -  °F | °C
As of 7:55 AM on Wednesday 26 Nov 2014 (Local Time) from KWWD Reporting Station
Broken Clouds Broken Clouds  
Wind Chill: 37°   Ceiling: 4100
Heat Index: 43°   Visibility: 5mi
Dew Point: 37°   Wind: 10mph
Humidity: 81%   Direction: 30°NNE
Pressure: 30.01"   Gusts: NA
Location:  39.18°N, 74.76°W
Report Text: KWWD 261255Z AUTO 03009KT 5SM FEW007 SCT015 BKN041 06/03 A3001 RMK AO1 P0004
Loading
Personal Weather Stations






























Interactive Weather Map New forecast layout! Learn more

10-Day Weather Forecast

Advertisements
Track Severe Weather on mobile